Trine Charlotte — LMRY — position and weather

sailwx.info

Track history (hours):
 
Tides and Currents Weather Stations Pressure Air Temp Water Temp Dewpoint Dewpoint Depression Visibility Wind Speed Wind Dir Waves Ship Positions

Trine Charlotte

Last reported at 2014-Dec-21 02:28 UTC. Time now 2014-Dec-21 18:40 UTC.
Position N 70°22' E 021°53'.

Length 66 m; draft 4.6 m.

Type: Wing in ground effect craft. MMSI: 257233000.

Date/timePositionNaut miles runAvg speedWind from/ knotsBaromVisibWave heightAir tempDewpointWater temp
2014-Dec-21 02:28N 70°22' E 021°53'70 8.5
2014-Dec-20 18:18N 69°43' E 019°04'5 6.3
2014-Dec-20 17:33N 69°39' E 018°58'5 0.1
2014-Dec-18 15:11N 69°34' E 018°52'6 0.6
2014-Dec-18 06:33N 69°39' E 018°58'1 0.7
2014-Dec-18 05:33N 69°40' E 018°58'0 0.0
2014-Dec-18 04:33N 69°40' E 018°58'0 0.0
2014-Dec-18 03:33N 69°40' E 018°58'0 0.0
2014-Dec-18 02:33N 69°40' E 018°58'0 0.0
2014-Dec-18 01:33N 69°40' E 018°58'0 0.0
2014-Dec-18 00:33N 69°40' E 018°58'4 3.6
2014-Dec-17 23:33N 69°43' E 019°03'4 0.3
2014-Dec-17 11:33N 69°40' E 018°58'0 0.0
2014-Dec-17 10:33N 69°40' E 018°58'0 0.0
2014-Dec-17 09:33N 69°40' E 018°58'0 0.0
2014-Dec-17 08:32N 69°40' E 018°58'0 0.0
2014-Dec-17 07:33N 69°40' E 018°58'0 0.0
2014-Dec-17 06:33N 69°40' E 018°58'0 0.0
2014-Dec-17 05:33N 69°40' E 018°58'0 0.0
2014-Dec-17 04:33N 69°40' E 018°58'0 0.0
2014-Dec-17 03:33N 69°40' E 018°58'0 0.0
2014-Dec-17 02:33N 69°40' E 018°58'2 1.9
2014-Dec-17 01:33N 69°41' E 019°01'  
2014-Dec-14 06:29N 70°26' E 023°40'16 0.5
2014-Dec-12 22:33N 70°42' E 023°29'9 9.1
2014-Dec-12 21:33N 70°35' E 023°10'9 9.1
2014-Dec-12 20:33N 70°30' E 022°48'9 9.3
2014-Dec-12 19:33N 70°27' E 022°21'82 8.9
2014-Dec-12 10:17N 69°41' E 019°01'3 4.0
2014-Dec-12 09:33N 69°38' E 018°58'  
Track history (hours):
 
Tides and Currents Weather Stations Pressure Air Temp Water Temp Dewpoint Dewpoint Depression Visibility Wind Speed Wind Dir Waves Ship Positions

Trine Charlotte

Last reported at 2014-Dec-21 02:28 UTC. Time now 2014-Dec-21 18:40 UTC.
Position N 70°22' E 021°53'.

Length 66 m; draft 4.6 m.

Type: Wing in ground effect craft. MMSI: 257233000.

Date/timePositionNaut miles runAvg speedWind from/ knotsBaromVisibWave heightAir tempDewpointWater temp
2014-Dec-21 02:28N 70°22' E 021°53'70 8.5
2014-Dec-20 18:18N 69°43' E 019°04'5 6.3
2014-Dec-20 17:33N 69°39' E 018°58'5 0.1
2014-Dec-18 15:11N 69°34' E 018°52'6 0.6
2014-Dec-18 06:33N 69°39' E 018°58'1 0.7
2014-Dec-18 05:33N 69°40' E 018°58'0 0.0
2014-Dec-18 04:33N 69°40' E 018°58'0 0.0
2014-Dec-18 03:33N 69°40' E 018°58'0 0.0
2014-Dec-18 02:33N 69°40' E 018°58'0 0.0
2014-Dec-18 01:33N 69°40' E 018°58'0 0.0
2014-Dec-18 00:33N 69°40' E 018°58'4 3.6
2014-Dec-17 23:33N 69°43' E 019°03'4 0.3
2014-Dec-17 11:33N 69°40' E 018°58'0 0.0
2014-Dec-17 10:33N 69°40' E 018°58'0 0.0
2014-Dec-17 09:33N 69°40' E 018°58'0 0.0
2014-Dec-17 08:32N 69°40' E 018°58'0 0.0
2014-Dec-17 07:33N 69°40' E 018°58'0 0.0
2014-Dec-17 06:33N 69°40' E 018°58'0 0.0
2014-Dec-17 05:33N 69°40' E 018°58'0 0.0
2014-Dec-17 04:33N 69°40' E 018°58'0 0.0
2014-Dec-17 03:33N 69°40' E 018°58'0 0.0
2014-Dec-17 02:33N 69°40' E 018°58'2 1.9
2014-Dec-17 01:33N 69°41' E 019°01'  
2014-Dec-14 06:29N 70°26' E 023°40'16 0.5
2014-Dec-12 22:33N 70°42' E 023°29'9 9.1
2014-Dec-12 21:33N 70°35' E 023°10'9 9.1
2014-Dec-12 20:33N 70°30' E 022°48'9 9.3
2014-Dec-12 19:33N 70°27' E 022°21'82 8.9
2014-Dec-12 10:17N 69°41' E 019°01'3 4.0
2014-Dec-12 09:33N 69°38' E 018°58'  

Dump ship's entire track history